sensor_id;sensor_type;location;lat;lon;timestamp;pressure;altitude;pressure_sealevel;temperature;humidity
21980;BME280;11154;48.558;9.234;2023-02-19T00:00:17;98046.91;;;14.08;75.67
21980;BME280;11154;48.558;9.234;2023-02-19T00:02:19;98041.06;;;14.05;75.44
21980;BME280;11154;48.558;9.234;2023-02-19T00:04:21;98039.06;;;14.07;76.26
21980;BME280;11154;48.558;9.234;2023-02-19T00:06:24;98038.22;;;14.06;75.85
21980;BME280;11154;48.558;9.234;2023-02-19T00:08:28;98029.56;;;14.04;75.17
21980;BME280;11154;48.558;9.234;2023-02-19T00:10:30;98028.38;;;14.07;76.08
21980;BME280;11154;48.558;9.234;2023-02-19T00:12:31;98025.53;;;14.08;76.07
21980;BME280;11154;48.558;9.234;2023-02-19T00:14:34;98025.84;;;14.05;75.56
21980;BME280;11154;48.558;9.234;2023-02-19T00:16:38;98034.25;;;14.10;75.96
21980;BME280;11154;48.558;9.234;2023-02-19T00:18:40;98025.38;;;14.10;76.95
21980;BME280;11154;48.558;9.234;2023-02-19T00:20:42;98038.25;;;14.14;77.13
21980;BME280;11154;48.558;9.234;2023-02-19T00:22:44;98035.06;;;14.19;76.99
21980;BME280;11154;48.558;9.234;2023-02-19T00:24:47;98031.03;;;14.23;76.86
21980;BME280;11154;48.558;9.234;2023-02-19T00:26:49;98025.50;;;14.24;76.76
21980;BME280;11154;48.558;9.234;2023-02-19T00:28:51;98035.19;;;14.25;76.67
21980;BME280;11154;48.558;9.234;2023-02-19T00:30:55;98028.84;;;14.26;76.68
21980;BME280;11154;48.558;9.234;2023-02-19T00:32:57;98019.00;;;14.27;76.69
21980;BME280;11154;48.558;9.234;2023-02-19T00:34:59;98023.31;;;14.28;76.40
21980;BME280;11154;48.558;9.234;2023-02-19T00:37:00;98026.66;;;14.30;76.64
21980;BME280;11154;48.558;9.234;2023-02-19T00:39:03;98026.47;;;14.31;76.61
21980;BME280;11154;48.558;9.234;2023-02-19T00:41:05;98017.47;;;14.32;76.43
21980;BME280;11154;48.558;9.234;2023-02-19T00:43:19;98022.63;;;14.34;76.26
21980;BME280;11154;48.558;9.234;2023-02-19T00:45:20;98023.28;;;14.36;76.45
21980;BME280;11154;48.558;9.234;2023-02-19T00:47:24;98023.28;;;14.36;76.42
21980;BME280;11154;48.558;9.234;2023-02-19T00:49:25;98009.91;;;14.36;76.45
21980;BME280;11154;48.558;9.234;2023-02-19T00:51:28;98010.59;;;14.38;76.21
21980;BME280;11154;48.558;9.234;2023-02-19T00:53:30;98017.63;;;14.39;76.12
21980;BME280;11154;48.558;9.234;2023-02-19T00:55:32;98013.94;;;14.40;76.24
21980;BME280;11154;48.558;9.234;2023-02-19T00:57:34;98027.13;;;14.41;75.90
21980;BME280;11154;48.558;9.234;2023-02-19T00:59:35;98026.13;;;14.42;75.82
21980;BME280;11154;48.558;9.234;2023-02-19T01:01:37;98027.63;;;14.44;75.55
21980;BME280;11154;48.558;9.234;2023-02-19T01:03:40;98037.31;;;14.45;75.55
21980;BME280;11154;48.558;9.234;2023-02-19T01:05:42;98031.78;;;14.47;75.29
21980;BME280;11154;48.558;9.234;2023-02-19T01:07:43;98025.09;;;14.43;75.97
21980;BME280;11154;48.558;9.234;2023-02-19T01:09:45;98020.59;;;14.43;75.57
21980;BME280;11154;48.558;9.234;2023-02-19T01:11:46;98026.44;;;14.47;75.50
21980;BME280;11154;48.558;9.234;2023-02-19T01:13:48;98019.09;;;14.49;75.47
21980;BME280;11154;48.558;9.234;2023-02-19T01:15:50;98019.91;;;14.49;75.37
21980;BME280;11154;48.558;9.234;2023-02-19T01:17:51;98013.72;;;14.49;75.39
21980;BME280;11154;48.558;9.234;2023-02-19T01:19:54;98008.38;;;14.49;75.24
21980;BME280;11154;48.558;9.234;2023-02-19T01:21:56;98001.34;;;14.48;75.35
21980;BME280;11154;48.558;9.234;2023-02-19T01:23:58;97997.00;;;14.47;75.26
21980;BME280;11154;48.558;9.234;2023-02-19T01:26:03;97997.69;;;14.49;75.21
21980;BME280;11154;48.558;9.234;2023-02-19T01:28:04;97989.09;;;14.53;74.97
21980;BME280;11154;48.558;9.234;2023-02-19T01:30:07;97986.41;;;14.53;75.17
21980;BME280;11154;48.558;9.234;2023-02-19T01:32:09;97992.63;;;14.54;75.33
21980;BME280;11154;48.558;9.234;2023-02-19T01:34:11;97990.59;;;14.56;74.95
21980;BME280;11154;48.558;9.234;2023-02-19T01:36:14;97992.25;;;14.57;74.99
21980;BME280;11154;48.558;9.234;2023-02-19T01:38:16;97990.59;;;14.56;75.07
21980;BME280;11154;48.558;9.234;2023-02-19T01:40:18;97988.75;;;14.56;75.08
21980;BME280;11154;48.558;9.234;2023-02-19T01:42:19;97988.94;;;14.55;75.19
21980;BME280;11154;48.558;9.234;2023-02-19T01:47:00;97989.59;;;14.57;75.16
21980;BME280;11154;48.558;9.234;2023-02-19T01:49:05;97971.53;;;14.59;74.86
21980;BME280;11154;48.558;9.234;2023-02-19T01:51:12;97967.16;;;14.58;75.12
21980;BME280;11154;48.558;9.234;2023-02-19T01:53:20;97970.69;;;14.58;74.85
21980;BME280;11154;48.558;9.234;2023-02-19T01:55:22;97967.84;;;14.60;74.62
21980;BME280;11154;48.558;9.234;2023-02-19T01:57:27;97967.84;;;14.60;74.49
21980;BME280;11154;48.558;9.234;2023-02-19T01:59:32;97973.19;;;14.60;74.68
21980;BME280;11154;48.558;9.234;2023-02-19T02:01:36;97929.06;;;13.64;78.76
21980;BME280;11154;48.558;9.234;2023-02-19T02:03:39;97932.94;;;13.21;81.75
21980;BME280;11154;48.558;9.234;2023-02-19T02:05:50;97935.13;;;13.02;83.09
21980;BME280;11154;48.558;9.234;2023-02-19T02:07:55;97940.75;;;12.91;84.04
21980;BME280;11154;48.558;9.234;2023-02-19T02:10:16;97940.75;;;12.83;84.69
21980;BME280;11154;48.558;9.234;2023-02-19T02:12:21;97937.38;;;12.73;85.78
21980;BME280;11154;48.558;9.234;2023-02-19T02:14:25;97933.22;;;12.71;85.76
21980;BME280;11154;48.558;9.234;2023-02-19T02:16:33;97935.06;;;12.70;85.59
21980;BME280;11154;48.558;9.234;2023-02-19T02:18:48;97943.38;;;12.67;85.66
21980;BME280;11154;48.558;9.234;2023-02-19T02:21:16;97928.53;;;12.65;85.83
21980;BME280;11154;48.558;9.234;2023-02-19T02:23:29;97931.53;;;12.70;85.16
21980;BME280;11154;48.558;9.234;2023-02-19T02:26:06;97936.06;;;12.69;85.03
21980;BME280;11154;48.558;9.234;2023-02-19T02:28:21;97932.38;;;12.70;84.99
21980;BME280;11154;48.558;9.234;2023-02-19T02:30:42;97937.72;;;12.70;84.66
21980;BME280;11154;48.558;9.234;2023-02-19T02:32:50;97943.38;;;12.67;84.89
21980;BME280;11154;48.558;9.234;2023-02-19T02:34:57;97938.03;;;12.67;84.70
21980;BME280;11154;48.558;9.234;2023-02-19T02:37:00;97934.38;;;12.68;84.65
21980;BME280;11154;48.558;9.234;2023-02-19T02:39:06;97925.69;;;12.66;85.08
21980;BME280;11154;48.558;9.234;2023-02-19T02:41:11;97943.72;;;12.64;85.03
21980;BME280;11154;48.558;9.234;2023-02-19T02:43:13;97930.69;;;12.61;85.32
21980;BME280;11154;48.558;9.234;2023-02-19T02:45:23;97928.19;;;12.60;85.76
21980;BME280;11154;48.558;9.234;2023-02-19T02:47:41;97924.16;;;12.56;85.90
21980;BME280;11154;48.558;9.234;2023-02-19T02:49:45;97925.19;;;12.55;85.98
21980;BME280;11154;48.558;9.234;2023-02-19T02:52:04;97927.00;;;12.54;85.65
21980;BME280;11154;48.558;9.234;2023-02-19T02:54:29;97926.19;;;12.54;85.63
21980;BME280;11154;48.558;9.234;2023-02-19T02:56:51;97918.31;;;12.52;86.11
21980;BME280;11154;48.558;9.234;2023-02-19T02:58:54;97921.16;;;12.51;85.55
21980;BME280;11154;48.558;9.234;2023-02-19T03:01:00;97928.50;;;12.49;85.89
21980;BME280;11154;48.558;9.234;2023-02-19T03:03:23;97917.34;;;12.45;86.46
21980;BME280;11154;48.558;9.234;2023-02-19T03:05:26;97910.31;;;12.44;86.53
21980;BME280;11154;48.558;9.234;2023-02-19T03:07:52;97906.97;;;12.42;86.50
21980;BME280;11154;48.558;9.234;2023-02-19T03:09:55;97904.47;;;12.41;86.44
21980;BME280;11154;48.558;9.234;2023-02-19T03:12:02;97894.63;;;12.41;86.04
21980;BME280;11154;48.558;9.234;2023-02-19T03:14:26;97905.66;;;12.38;85.88
21980;BME280;11154;48.558;9.234;2023-02-19T03:16:50;97896.97;;;12.36;86.41
21980;BME280;11154;48.558;9.234;2023-02-19T03:19:15;97895.63;;;12.32;85.80
21980;BME280;11154;48.558;9.234;2023-02-19T03:21:21;97893.97;;;12.31;86.33
21980;BME280;11154;48.558;9.234;2023-02-19T03:23:26;97905.28;;;12.33;86.25
21980;BME280;11154;48.558;9.234;2023-02-19T03:25:44;97892.13;;;12.32;86.31
21980;BME280;11154;48.558;9.234;2023-02-19T03:28:07;97897.63;;;12.30;86.19
21980;BME280;11154;48.558;9.234;2023-02-19T03:30:14;97892.28;;;12.30;86.23
21980;BME280;11154;48.558;9.234;2023-02-19T03:32:17;97896.78;;;12.30;85.37
21980;BME280;11154;48.558;9.234;2023-02-19T03:34:25;97902.28;;;12.28;85.61
21980;BME280;11154;48.558;9.234;2023-02-19T03:36:33;97893.44;;;12.28;85.91
21980;BME280;11154;48.558;9.234;2023-02-19T03:38:37;97893.63;;;12.26;85.76
21980;BME280;11154;48.558;9.234;2023-02-19T03:40:43;97906.28;;;12.24;85.98
21980;BME280;11154;48.558;9.234;2023-02-19T03:42:57;97903.59;;;12.24;86.41
21980;BME280;11154;48.558;9.234;2023-02-19T03:45:10;97907.56;;;12.21;87.00
21980;BME280;11154;48.558;9.234;2023-02-19T03:47:20;97907.22;;;12.16;87.46
21980;BME280;11154;48.558;9.234;2023-02-19T03:49:28;97904.06;;;12.12;87.55
21980;BME280;11154;48.558;9.234;2023-02-19T03:51:36;97911.06;;;12.13;87.71
21980;BME280;11154;48.558;9.234;2023-02-19T03:53:48;97917.72;;;12.09;89.41
21980;BME280;11154;48.558;9.234;2023-02-19T03:56:01;97917.50;;;12.03;90.26
21980;BME280;11154;48.558;9.234;2023-02-19T03:58:09;97925.84;;;12.00;90.12
21980;BME280;11154;48.558;9.234;2023-02-19T04:00:16;97971.50;;;12.05;91.05
21980;BME280;11154;48.558;9.234;2023-02-19T04:02:26;97966.72;;;12.65;88.25
21980;BME280;11154;48.558;9.234;2023-02-19T04:04:33;97962.13;;;12.91;85.44
21980;BME280;11154;48.558;9.234;2023-02-19T04:06:37;97963.81;;;13.08;83.88
21980;BME280;11154;48.558;9.234;2023-02-19T04:08:43;97973.69;;;13.23;82.36
21980;BME280;11154;48.558;9.234;2023-02-19T04:10:46;97972.16;;;13.37;81.42
21980;BME280;11154;48.558;9.234;2023-02-19T04:12:54;97971.00;;;13.47;80.46
21980;BME280;11154;48.558;9.234;2023-02-19T04:15:00;97969.13;;;13.56;79.08
21980;BME280;11154;48.558;9.234;2023-02-19T04:17:06;97970.13;;;13.63;79.08
21980;BME280;11154;48.558;9.234;2023-02-19T04:19:11;97968.81;;;13.67;78.37
21980;BME280;11154;48.558;9.234;2023-02-19T04:21:16;97972.81;;;13.70;77.67
21980;BME280;11154;48.558;9.234;2023-02-19T04:23:22;97980.31;;;13.75;77.06
21980;BME280;11154;48.558;9.234;2023-02-19T04:25:26;97984.50;;;13.77;77.19
21980;BME280;11154;48.558;9.234;2023-02-19T04:27:29;97983.31;;;13.80;76.88
21980;BME280;11154;48.558;9.234;2023-02-19T04:29:32;97987.28;;;13.84;76.25
21980;BME280;11154;48.558;9.234;2023-02-19T04:31:34;97991.47;;;13.86;75.95
21980;BME280;11154;48.558;9.234;2023-02-19T04:33:36;97988.78;;;13.86;76.26
21980;BME280;11154;48.558;9.234;2023-02-19T04:35:37;97996.81;;;13.86;76.50
21980;BME280;11154;48.558;9.234;2023-02-19T04:37:40;98001.34;;;13.86;76.32
21980;BME280;11154;48.558;9.234;2023-02-19T04:39:42;97998.66;;;13.86;76.08
21980;BME280;11154;48.558;9.234;2023-02-19T04:41:44;98006.38;;;13.81;76.46
21980;BME280;11154;48.558;9.234;2023-02-19T04:43:46;98012.53;;;13.81;76.75
21980;BME280;11154;48.558;9.234;2023-02-19T04:45:47;98007.38;;;13.80;76.69
21980;BME280;11154;48.558;9.234;2023-02-19T04:47:49;98012.88;;;13.78;76.77
21980;BME280;11154;48.558;9.234;2023-02-19T04:49:50;98014.53;;;13.79;76.94
21980;BME280;11154;48.558;9.234;2023-02-19T04:51:52;98019.88;;;13.79;77.22
21980;BME280;11154;48.558;9.234;2023-02-19T04:53:55;98012.88;;;13.78;77.03
21980;BME280;11154;48.558;9.234;2023-02-19T04:55:57;98017.56;;;13.76;77.08
21980;BME280;11154;48.558;9.234;2023-02-19T04:58:05;98024.91;;;13.74;78.07
21980;BME280;11154;48.558;9.234;2023-02-19T05:00:08;98027.56;;;13.74;78.51
21980;BME280;11154;48.558;9.234;2023-02-19T05:02:10;98029.59;;;13.72;79.04
21980;BME280;11154;48.558;9.234;2023-02-19T05:04:11;98027.25;;;13.69;79.83
21980;BME280;11154;48.558;9.234;2023-02-19T05:06:13;98028.25;;;13.68;80.31
21980;BME280;11154;48.558;9.234;2023-02-19T05:08:15;98021.59;;;13.65;80.56
21980;BME280;11154;48.558;9.234;2023-02-19T05:10:18;98037.94;;;13.62;81.07
21980;BME280;11154;48.558;9.234;2023-02-19T05:12:19;98025.56;;;13.61;80.92
21980;BME280;11154;48.558;9.234;2023-02-19T05:14:21;98031.09;;;13.59;80.47
21980;BME280;11154;48.558;9.234;2023-02-19T05:16:23;98034.75;;;13.58;80.52
21980;BME280;11154;48.558;9.234;2023-02-19T05:18:24;98032.94;;;13.59;80.41
21980;BME280;11154;48.558;9.234;2023-02-19T05:20:26;98036.94;;;13.63;79.89
21980;BME280;11154;48.558;9.234;2023-02-19T05:22:28;98036.75;;;13.64;79.73
21980;BME280;11154;48.558;9.234;2023-02-19T05:24:30;98042.97;;;13.65;79.96
21980;BME280;11154;48.558;9.234;2023-02-19T05:26:33;98045.63;;;13.57;78.09
21980;BME280;11154;48.558;9.234;2023-02-19T05:28:35;98031.09;;;13.51;78.22
21980;BME280;11154;48.558;9.234;2023-02-19T05:30:36;98039.63;;;13.47;77.56
21980;BME280;11154;48.558;9.234;2023-02-19T05:32:38;98041.44;;;13.46;78.57
21980;BME280;11154;48.558;9.234;2023-02-19T05:34:40;98046.28;;;13.43;78.87
21980;BME280;11154;48.558;9.234;2023-02-19T05:36:41;98055.66;;;13.47;79.31
21980;BME280;11154;48.558;9.234;2023-02-19T05:38:43;98059.47;;;13.52;80.37
21980;BME280;11154;48.558;9.234;2023-02-19T05:40:45;98069.00;;;13.55;79.78
21980;BME280;11154;48.558;9.234;2023-02-19T05:42:48;98059.34;;;13.54;79.24
21980;BME280;11154;48.558;9.234;2023-02-19T05:44:50;98055.31;;;13.50;78.43
21980;BME280;11154;48.558;9.234;2023-02-19T05:46:51;98053.63;;;13.49;78.43
21980;BME280;11154;48.558;9.234;2023-02-19T05:48:53;98062.19;;;13.44;78.68
21980;BME280;11154;48.558;9.234;2023-02-19T05:51:00;98052.31;;;13.45;79.22
21980;BME280;11154;48.558;9.234;2023-02-19T05:53:03;98052.63;;;13.42;78.93
21980;BME280;11154;48.558;9.234;2023-02-19T05:55:05;98052.63;;;13.42;78.89
21980;BME280;11154;48.558;9.234;2023-02-19T05:57:07;98056.31;;;13.33;75.81
21980;BME280;11154;48.558;9.234;2023-02-19T05:59:14;98056.81;;;13.36;79.12
21980;BME280;11154;48.558;9.234;2023-02-19T06:01:17;98057.47;;;13.38;79.43
21980;BME280;11154;48.558;9.234;2023-02-19T06:03:19;98061.00;;;13.39;79.50
21980;BME280;11154;48.558;9.234;2023-02-19T06:05:21;98058.81;;;13.34;77.89
21980;BME280;11154;48.558;9.234;2023-02-19T06:07:22;98061.66;;;13.33;79.04
21980;BME280;11154;48.558;9.234;2023-02-19T06:09:24;98065.31;;;13.32;79.04
21980;BME280;11154;48.558;9.234;2023-02-19T06:11:27;98062.97;;;13.29;78.73
21980;BME280;11154;48.558;9.234;2023-02-19T06:13:29;98061.47;;;13.26;77.50
21980;BME280;11154;48.558;9.234;2023-02-19T06:15:32;98062.97;;;13.29;78.78
21980;BME280;11154;48.558;9.234;2023-02-19T06:17:34;98066.81;;;13.26;78.23
21980;BME280;11154;48.558;9.234;2023-02-19T06:19:35;98072.81;;;13.28;78.38
21980;BME280;11154;48.558;9.234;2023-02-19T06:21:37;98081.66;;;13.29;78.09
21980;BME280;11154;48.558;9.234;2023-02-19T06:23:39;98091.34;;;13.30;77.55
21980;BME280;11154;48.558;9.234;2023-02-19T06:25:40;98087.88;;;13.37;79.15
21980;BME280;11154;48.558;9.234;2023-02-19T06:27:42;98092.38;;;13.37;78.94
21980;BME280;11154;48.558;9.234;2023-02-19T06:29:44;98102.56;;;13.41;80.29
21980;BME280;11154;48.558;9.234;2023-02-19T06:31:47;98096.56;;;13.47;81.14
21980;BME280;11154;48.558;9.234;2023-02-19T06:33:48;98113.41;;;13.48;80.16
21980;BME280;11154;48.558;9.234;2023-02-19T06:35:51;98120.59;;;13.47;79.51
21980;BME280;11154;48.558;9.234;2023-02-19T06:37:52;98119.44;;;13.50;79.61
21980;BME280;11154;48.558;9.234;2023-02-19T06:39:54;98120.78;;;13.46;79.17
21980;BME280;11154;48.558;9.234;2023-02-19T06:41:56;98132.47;;;13.45;79.32
21980;BME280;11154;48.558;9.234;2023-02-19T06:43:57;98139.47;;;13.46;79.53
21980;BME280;11154;48.558;9.234;2023-02-19T06:45:59;98141.16;;;13.47;79.96
21980;BME280;11154;48.558;9.234;2023-02-19T06:48:03;98138.31;;;13.48;79.68
21980;BME280;11154;48.558;9.234;2023-02-19T06:50:05;98139.31;;;13.47;79.46
21980;BME280;11154;48.558;9.234;2023-02-19T06:52:07;98153.50;;;13.48;79.78
21980;BME280;11154;48.558;9.234;2023-02-19T06:54:08;98150.81;;;13.48;80.16
21980;BME280;11154;48.558;9.234;2023-02-19T06:56:22;98158.50;;;13.43;80.38
21980;BME280;11154;48.558;9.234;2023-02-19T06:58:25;98186.38;;;13.40;81.47
21980;BME280;11154;48.558;9.234;2023-02-19T07:00:26;98176.69;;;13.39;82.41
21980;BME280;11154;48.558;9.234;2023-02-19T07:02:28;98173.19;;;13.39;83.20
21980;BME280;11154;48.558;9.234;2023-02-19T07:04:31;98165.19;;;13.39;83.36
21980;BME280;11154;48.558;9.234;2023-02-19T07:06:34;98170.69;;;13.37;83.13
21980;BME280;11154;48.558;9.234;2023-02-19T07:08:36;98176.84;;;13.38;83.48
21980;BME280;11154;48.558;9.234;2023-02-19T07:10:37;98170.81;;;13.36;84.23
21980;BME280;11154;48.558;9.234;2023-02-19T07:12:39;98182.69;;;13.33;83.32
21980;BME280;11154;48.558;9.234;2023-02-19T07:14:40;98179.88;;;13.35;81.47
21980;BME280;11154;48.558;9.234;2023-02-19T07:16:43;98192.19;;;13.36;82.56
21980;BME280;11154;48.558;9.234;2023-02-19T07:18:46;98190.03;;;13.31;83.81
21980;BME280;11154;48.558;9.234;2023-02-19T07:20:49;98193.00;;;13.28;83.63
21980;BME280;11154;48.558;9.234;2023-02-19T07:22:51;98196.00;;;13.25;81.40
21980;BME280;11154;48.558;9.234;2023-02-19T07:24:52;98204.53;;;13.29;80.82
21980;BME280;11154;48.558;9.234;2023-02-19T07:26:54;98206.88;;;13.32;81.24
21980;BME280;11154;48.558;9.234;2023-02-19T07:28:55;98200.72;;;13.31;80.41
21980;BME280;11154;48.558;9.234;2023-02-19T07:31:00;98204.38;;;13.30;80.31
21980;BME280;11154;48.558;9.234;2023-02-19T07:33:02;98210.22;;;13.26;80.19
21980;BME280;11154;48.558;9.234;2023-02-19T07:35:04;98214.69;;;13.25;80.44
21980;BME280;11154;48.558;9.234;2023-02-19T07:37:07;98213.78;;;13.42;80.09
21980;BME280;11154;48.558;9.234;2023-02-19T07:39:11;98217.00;;;13.54;79.07
21980;BME280;11154;48.558;9.234;2023-02-19T07:41:13;98215.31;;;13.53;78.72
21980;BME280;11154;48.558;9.234;2023-02-19T07:43:15;98207.56;;;13.42;78.92
21980;BME280;11154;48.558;9.234;2023-02-19T07:45:16;98213.09;;;13.40;78.34
21980;BME280;11154;48.558;9.234;2023-02-19T07:47:18;98213.56;;;13.36;77.75
21980;BME280;11154;48.558;9.234;2023-02-19T07:49:19;98209.25;;;13.35;77.42
21980;BME280;11154;48.558;9.234;2023-02-19T07:51:21;98218.91;;;13.36;77.23
21980;BME280;11154;48.558;9.234;2023-02-19T07:53:25;98213.75;;;13.34;77.23
21980;BME280;11154;48.558;9.234;2023-02-19T07:55:27;98221.91;;;13.33;76.61
21980;BME280;11154;48.558;9.234;2023-02-19T07:57:29;98213.91;;;13.33;76.61
21980;BME280;11154;48.558;9.234;2023-02-19T07:59:30;98229.94;;;13.33;76.58
21980;BME280;11154;48.558;9.234;2023-02-19T08:01:32;98231.09;;;13.30;76.65
21980;BME280;11154;48.558;9.234;2023-02-19T08:03:51;98235.09;;;13.34;76.62
21980;BME280;11154;48.558;9.234;2023-02-19T08:05:52;98227.09;;;13.34;76.99
21980;BME280;11154;48.558;9.234;2023-02-19T08:07:54;98238.28;;;13.38;77.92
21980;BME280;11154;48.558;9.234;2023-02-19T08:09:57;98232.94;;;13.38;77.93
21980;BME280;11154;48.558;9.234;2023-02-19T08:12:23;98232.44;;;13.34;77.90
21980;BME280;11154;48.558;9.234;2023-02-19T08:14:42;98235.09;;;13.34;77.79
21980;BME280;11154;48.558;9.234;2023-02-19T08:16:47;98236.28;;;13.32;77.57
21980;BME280;11154;48.558;9.234;2023-02-19T08:18:49;98238.94;;;13.32;77.33
21980;BME280;11154;48.558;9.234;2023-02-19T08:20:51;98237.94;;;13.33;77.03
21980;BME280;11154;48.558;9.234;2023-02-19T08:22:52;98231.63;;;13.34;77.48
21980;BME280;11154;48.558;9.234;2023-02-19T08:24:54;98241.44;;;13.33;77.54
21980;BME280;11154;48.558;9.234;2023-02-19T08:26:57;98240.94;;;13.30;77.70
21980;BME280;11154;48.558;9.234;2023-02-19T08:28:59;98235.75;;;13.28;77.03
21980;BME280;11154;48.558;9.234;2023-02-19T08:31:02;98240.50;;;13.42;77.17
21980;BME280;11154;48.558;9.234;2023-02-19T08:33:05;98240.28;;;13.36;78.44
21980;BME280;11154;48.558;9.234;2023-02-19T08:35:07;98249.94;;;13.29;79.56
21980;BME280;11154;48.558;9.234;2023-02-19T08:37:09;98251.25;;;13.25;78.86
21980;BME280;11154;48.558;9.234;2023-02-19T08:39:11;98253.25;;;13.23;78.40
21980;BME280;11154;48.558;9.234;2023-02-19T08:41:13;98246.56;;;13.19;79.02
21980;BME280;11154;48.558;9.234;2023-02-19T08:43:16;98262.75;;;13.17;79.24
21980;BME280;11154;48.558;9.234;2023-02-19T08:45:18;98257.25;;;13.19;78.05
21980;BME280;11154;48.558;9.234;2023-02-19T08:47:20;98258.22;;;13.18;78.68
21980;BME280;11154;48.558;9.234;2023-02-19T08:49:24;98268.22;;;13.16;79.05
21980;BME280;11154;48.558;9.234;2023-02-19T08:51:26;98272.56;;;13.17;79.11
21980;BME280;11154;48.558;9.234;2023-02-19T08:53:29;98270.91;;;13.16;78.95
21980;BME280;11154;48.558;9.234;2023-02-19T08:55:31;98278.78;;;13.17;79.07
21980;BME280;11154;48.558;9.234;2023-02-19T08:57:34;98282.63;;;13.23;78.97
21980;BME280;11154;48.558;9.234;2023-02-19T08:59:39;98282.31;;;13.26;78.41
21980;BME280;11154;48.558;9.234;2023-02-19T09:01:40;98274.66;;;13.31;79.04
21980;BME280;11154;48.558;9.234;2023-02-19T09:03:42;98268.50;;;13.30;77.30
21980;BME280;11154;48.558;9.234;2023-02-19T09:05:44;98264.66;;;13.33;77.78
21980;BME280;11154;48.558;9.234;2023-02-19T09:07:46;98263.97;;;13.31;76.54
21980;BME280;11154;48.558;9.234;2023-02-19T09:09:47;98267.00;;;13.36;76.57
21980;BME280;11154;48.558;9.234;2023-02-19T09:11:49;98264.31;;;13.36;75.92
21980;BME280;11154;48.558;9.234;2023-02-19T09:13:51;98274.88;;;13.37;75.85
21980;BME280;11154;48.558;9.234;2023-02-19T09:15:55;98277.38;;;13.39;75.80
21980;BME280;11154;48.558;9.234;2023-02-19T09:17:57;98277.38;;;13.39;76.22
21980;BME280;11154;48.558;9.234;2023-02-19T09:19:58;98288.22;;;13.37;75.42
21980;BME280;11154;48.558;9.234;2023-02-19T09:22:00;98283.72;;;13.38;73.47
21980;BME280;11154;48.558;9.234;2023-02-19T09:24:02;98291.41;;;13.41;74.57
21980;BME280;11154;48.558;9.234;2023-02-19T09:26:05;98297.59;;;13.41;75.03
21980;BME280;11154;48.558;9.234;2023-02-19T09:28:09;98303.75;;;13.42;75.55
21980;BME280;11154;48.558;9.234;2023-02-19T09:30:11;98298.41;;;13.42;75.61
21980;BME280;11154;48.558;9.234;2023-02-19T09:32:14;98308.28;;;13.41;75.03
21980;BME280;11154;48.558;9.234;2023-02-19T09:34:15;98316.13;;;13.43;75.68
21980;BME280;11154;48.558;9.234;2023-02-19T09:36:17;98326.16;;;13.41;75.94
21980;BME280;11154;48.558;9.234;2023-02-19T09:38:19;98324.94;;;13.35;76.65
21980;BME280;11154;48.558;9.234;2023-02-19T09:40:20;98338.78;;;13.31;77.67
21980;BME280;11154;48.558;9.234;2023-02-19T09:42:23;98333.06;;;13.26;77.60
21980;BME280;11154;48.558;9.234;2023-02-19T09:44:31;98332.84;;;13.19;77.76
21980;BME280;11154;48.558;9.234;2023-02-19T09:46:37;98333.34;;;13.15;79.26
21980;BME280;11154;48.558;9.234;2023-02-19T09:48:43;98346.84;;;13.13;80.46
21980;BME280;11154;48.558;9.234;2023-02-19T09:50:46;98329.75;;;13.06;81.04
21980;BME280;11154;48.558;9.234;2023-02-19T09:52:50;98336.41;;;13.02;82.38
21980;BME280;11154;48.558;9.234;2023-02-19T09:54:55;98347.25;;;13.01;83.10
21980;BME280;11154;48.558;9.234;2023-02-19T09:57:00;98345.59;;;13.00;84.03
21980;BME280;11154;48.558;9.234;2023-02-19T09:59:03;98348.41;;;12.98;85.43
21980;BME280;11154;48.558;9.234;2023-02-19T10:01:06;98357.94;;;13.01;86.31
21980;BME280;11154;48.558;9.234;2023-02-19T10:03:15;98351.91;;;12.99;86.26
21980;BME280;11154;48.558;9.234;2023-02-19T10:05:22;98359.63;;;13.02;86.16
21980;BME280;11154;48.558;9.234;2023-02-19T10:07:34;98364.81;;;13.03;85.98
21980;BME280;11154;48.558;9.234;2023-02-19T10:09:37;98362.66;;;13.07;85.84
21980;BME280;11154;48.558;9.234;2023-02-19T10:11:39;98356.16;;;13.09;85.79
21980;BME280;11154;48.558;9.234;2023-02-19T10:13:44;98364.00;;;13.11;83.79
21980;BME280;11154;48.558;9.234;2023-02-19T10:15:50;98365.53;;;13.13;82.98
21980;BME280;11154;48.558;9.234;2023-02-19T10:17:52;98363.09;;;13.20;83.56
21980;BME280;11154;48.558;9.234;2023-02-19T10:19:54;98352.22;;;13.21;83.23
21980;BME280;11154;48.558;9.234;2023-02-19T10:21:59;98357.09;;;13.26;83.01
21980;BME280;11154;48.558;9.234;2023-02-19T10:24:04;98364.13;;;13.27;83.37
21980;BME280;11154;48.558;9.234;2023-02-19T10:26:06;98370.47;;;13.26;82.45
21980;BME280;11154;48.558;9.234;2023-02-19T10:28:11;98372.44;;;13.24;81.36
21980;BME280;11154;48.558;9.234;2023-02-19T10:30:19;98374.81;;;13.27;81.65
21980;BME280;11154;48.558;9.234;2023-02-19T10:32:23;98371.16;;;13.28;81.74
21980;BME280;11154;48.558;9.234;2023-02-19T10:34:25;98367.16;;;13.32;80.75
21980;BME280;11154;48.558;9.234;2023-02-19T10:36:28;98371.34;;;13.34;79.27
21980;BME280;11154;48.558;9.234;2023-02-19T10:38:36;98370.03;;;13.38;80.28
21980;BME280;11154;48.558;9.234;2023-02-19T10:40:42;98368.22;;;13.39;76.94
21980;BME280;11154;48.558;9.234;2023-02-19T10:42:46;98377.44;;;13.44;78.08
21980;BME280;11154;48.558;9.234;2023-02-19T10:44:52;98376.31;;;13.55;81.78
21980;BME280;11154;48.558;9.234;2023-02-19T10:46:57;98375.47;;;13.54;80.44
21980;BME280;11154;48.558;9.234;2023-02-19T10:49:03;98384.66;;;13.52;78.46
21980;BME280;11154;48.558;9.234;2023-02-19T10:51:07;98383.44;;;13.46;76.18
21980;BME280;11154;48.558;9.234;2023-02-19T10:53:19;98384.94;;;13.41;76.06
21980;BME280;11154;48.558;9.234;2023-02-19T10:55:29;98384.75;;;13.42;77.04
21980;BME280;11154;48.558;9.234;2023-02-19T10:57:31;98390.56;;;13.38;75.52
21980;BME280;11154;48.558;9.234;2023-02-19T10:59:34;98380.69;;;13.30;74.63
21980;BME280;11154;48.558;9.234;2023-02-19T11:01:38;98385.16;;;13.30;74.91